Time;durP1;ratioP1;P1;durP2;ratioP2;P2;SDS_P1;SDS_P2;PMS_P1;PMS_P2;Temp;Humidity;BMP_temperature;BMP_pressure;BME280_temperature;BME280_humidity;BME280_pressure;Samples;Min_cycle;Max_cycle;Signal;HPM_P1;HPM_P2
2022/12/26 00:01:38;;;;;;;;;;;16.50;98.00;;;;;;5058446;28;19909;-90
2022/12/26 00:04:03;;;;;;;;;;;16.50;98.00;;;;;;5059449;28;19974;-90
2022/12/26 00:06:29;;;;;;;;;;;16.50;97.90;;;;;;5059372;28;20013;-90
2022/12/26 00:08:56;;;;;;;;;;;16.50;97.90;;;;;;5059955;28;20308;-90
2022/12/26 00:11:22;;;;;;;;;;;16.50;97.90;;;;;;5059307;28;20198;-90
2022/12/26 00:13:51;;;;;;;;;;;16.60;97.80;;;;;;5059589;28;19918;-91
2022/12/26 00:16:18;;;;;;;;;;;16.60;97.80;;;;;;5058659;28;20274;-90
2022/12/26 00:18:45;;;;;;;;;;;16.60;97.80;;;;;;5056292;28;19923;-90
2022/12/26 00:21:12;;;;;;;;;;;16.60;97.80;;;;;;5058536;28;19908;-90
2022/12/26 00:23:38;;;;;;;;;;;16.60;97.80;;;;;;5075803;28;19908;-90
2022/12/26 00:26:04;;;;;;;;;;;16.60;97.80;;;;;;5058888;28;20244;-90
2022/12/26 00:28:30;;;;;;;;;;;16.60;97.80;;;;;;5059339;28;19919;-90
2022/12/26 00:30:56;;;;;;;;;;;16.60;97.80;;;;;;5058627;28;19916;-90
2022/12/26 00:33:21;;;;;;;;;;;16.60;97.80;;;;;;5057401;28;19978;-91
2022/12/26 00:35:47;;;;;;;;;;;16.60;97.80;;;;;;5058021;28;19924;-91
2022/12/26 00:38:13;;;;;;;;;;;16.60;97.80;;;;;;5056607;28;19973;-91
2022/12/26 00:40:43;;;;;;;;;;;16.60;97.80;;;;;;5058773;28;19909;-91
2022/12/26 00:43:09;;;;;;;;;;;16.60;97.80;;;;;;5058530;28;20167;-90
2022/12/26 00:45:35;;;;;;;;;;;16.60;97.70;;;;;;5077422;28;20316;-90
2022/12/26 00:48:00;;;;;;;;;;;16.60;97.80;;;;;;5060937;28;19909;-91
2022/12/26 00:50:26;;;;;;;;;;;16.60;97.70;;;;;;5061126;28;19962;-91
2022/12/26 00:52:52;;;;;;;;;;;16.60;97.70;;;;;;5076444;28;19908;-91
2022/12/26 00:55:18;;;;;;;;;;;16.60;97.80;;;;;;5059041;28;19935;-91
2022/12/26 00:57:43;;;;;;;;;;;16.60;97.80;;;;;;5074014;28;20294;-91
2022/12/26 01:00:09;;;;;;;;;;;16.60;97.80;;;;;;5057459;28;19948;-91
2022/12/26 01:02:38;;;;;;;;;;;16.60;97.80;;;;;;5057150;28;19920;-92
2022/12/26 01:05:07;;;;;;;;;;;16.50;97.70;;;;;;5056878;28;19916;-91
2022/12/26 01:07:35;;;;;;;;;;;16.60;97.80;;;;;;5058533;28;20270;-92
2022/12/26 01:10:01;;;;;;;;;;;16.60;97.80;;;;;;5058823;28;19919;-91
2022/12/26 01:12:26;;;;;;;;;;;16.60;97.80;;;;;;5057251;28;19916;-92
2022/12/26 01:14:54;;;;;;;;;;;16.60;97.80;;;;;;5058281;28;20298;-92
2022/12/26 01:17:19;;;;;;;;;;;16.60;97.90;;;;;;5058075;28;19909;-92
2022/12/26 01:19:45;;;;;;;;;;;16.60;97.90;;;;;;5057468;28;19915;-91
2022/12/26 01:22:11;;;;;;;;;;;16.60;97.90;;;;;;5058224;28;19913;-92
2022/12/26 01:24:36;;;;;;;;;;;16.50;97.90;;;;;;5075431;28;20355;-92
2022/12/26 01:27:02;;;;;;;;;;;16.50;97.90;;;;;;5058094;28;19908;-91
2022/12/26 01:29:28;;;;;;;;;;;16.60;97.90;;;;;;5059466;28;20171;-91
2022/12/26 01:31:53;;;;;;;;;;;16.50;97.90;;;;;;5059519;28;20005;-91
2022/12/26 01:34:19;;;;;;;;;;;16.50;97.90;;;;;;5059209;28;19916;-91
2022/12/26 01:36:45;;;;;;;;;;;16.50;97.90;;;;;;5059174;28;19919;-91
2022/12/26 01:39:11;;;;;;;;;;;16.50;98.00;;;;;;5075724;28;20217;-91
2022/12/26 01:41:36;;;;;;;;;;;16.50;98.00;;;;;;5076281;28;19909;-91
2022/12/26 01:44:04;;;;;;;;;;;16.60;98.00;;;;;;5092224;28;19916;-91
2022/12/26 01:46:29;;;;;;;;;;;16.60;98.00;;;;;;5075636;28;19916;-91
2022/12/26 01:48:58;;;;;;;;;;;16.60;98.00;;;;;;5058681;28;19908;-91
2022/12/26 01:51:25;;;;;;;;;;;16.60;98.00;;;;;;5059255;28;20007;-91
2022/12/26 01:53:52;;;;;;;;;;;16.50;98.00;;;;;;5058875;28;19917;-91
2022/12/26 01:56:20;;;;;;;;;;;16.50;98.00;;;;;;5059173;28;20177;-91
2022/12/26 01:58:49;;;;;;;;;;;16.60;98.00;;;;;;5092426;28;19908;-91
2022/12/26 02:01:15;;;;;;;;;;;16.50;98.00;;;;;;5059233;28;19908;-91
2022/12/26 02:06:28;;;;;;;;;;;16.50;98.00;;;;;;5075707;28;20257;-91
2022/12/26 02:08:54;;;;;;;;;;;16.50;98.00;;;;;;5058748;28;20289;-91
2022/12/26 02:11:25;;;;;;;;;;;16.50;98.00;;;;;;5058528;28;19909;-91
2022/12/26 02:13:51;;;;;;;;;;;16.50;98.10;;;;;;5058900;28;19909;-91
2022/12/26 02:16:17;;;;;;;;;;;16.50;98.10;;;;;;5076308;28;20300;-91
2022/12/26 02:18:43;;;;;;;;;;;16.50;98.10;;;;;;5058970;28;19909;-91
2022/12/26 02:21:27;;;;;;;;;;;16.50;98.10;;;;;;5057510;28;19919;-91
2022/12/26 02:24:11;;;;;;;;;;;16.50;98.10;;;;;;5057816;28;19912;-91
2022/12/26 02:26:56;;;;;;;;;;;16.50;98.10;;;;;;5057460;28;19915;-91
2022/12/26 02:29:30;;;;;;;;;;;16.50;98.10;;;;;;5058516;28;19908;-91
2022/12/26 02:31:59;;;;;;;;;;;16.50;98.20;;;;;;5057334;28;19909;-91
2022/12/26 02:34:35;;;;;;;;;;;16.50;98.20;;;;;;5057604;28;19920;-91
2022/12/26 02:37:04;;;;;;;;;;;16.50;98.20;;;;;;5057999;28;19909;-91
2022/12/26 02:39:32;;;;;;;;;;;16.50;98.20;;;;;;5057579;28;20485;-91
2022/12/26 02:42:18;;;;;;;;;;;16.50;98.20;;;;;;5056882;28;19909;-91
2022/12/26 02:47:34;;;;;;;;;;;16.50;98.20;;;;;;5083774;28;19942;-91
2022/12/26 03:15:17;;;;;;;;;;;16.40;98.30;;;;;;5077707;28;19924;-91
2022/12/26 03:17:45;;;;;;;;;;;16.40;98.30;;;;;;5095384;28;19909;-91
2022/12/26 03:20:13;;;;;;;;;;;16.40;98.30;;;;;;5061396;28;19908;-91
2022/12/26 03:22:51;;;;;;;;;;;16.40;98.30;;;;;;5060391;28;19916;-91
2022/12/26 03:28:12;;;;;;;;;;;16.40;98.30;;;;;;5078047;28;20008;-91
2022/12/26 03:30:50;;;;;;;;;;;16.40;98.30;;;;;;5078685;28;19970;-91
2022/12/26 03:36:10;;;;;;;;;;;16.40;98.30;;;;;;5077791;28;20347;-91
2022/12/26 03:38:50;;;;;;;;;;;16.40;98.30;;;;;;5060985;28;19909;-91
2022/12/26 04:46:27;;;;;;;;;;;18.40;91.70;;;;;;5074650;28;19974;-91
2022/12/26 04:51:37;;;;;;;;;;;18.20;92.50;;;;;;5074734;28;19995;-90
2022/12/26 04:54:03;;;;;;;;;;;18.10;92.90;;;;;;5058478;28;19999;-91
2022/12/26 04:56:29;;;;;;;;;;;18.00;93.10;;;;;;5058209;28;19970;-91
2022/12/26 04:58:54;;;;;;;;;;;17.90;93.30;;;;;;5058432;28;19920;-91
2022/12/26 05:09:33;;;;;;;;;;;17.60;94.40;;;;;;5076253;28;19919;-91
2022/12/26 05:11:59;;;;;;;;;;;17.50;94.70;;;;;;5059169;28;19912;-92
2022/12/26 05:14:25;;;;;;;;;;;17.50;95.00;;;;;;5075779;28;19936;-91
2022/12/26 05:30:36;;;;;;;;;;;17.00;96.30;;;;;;5076144;28;20201;-91
2022/12/26 05:35:46;;;;;;;;;;;16.90;96.60;;;;;;5075825;28;19919;-91
2022/12/26 05:38:12;;;;;;;;;;;16.90;96.70;;;;;;5059003;28;19908;-91
2022/12/26 05:40:38;;;;;;;;;;;16.80;96.80;;;;;;5057723;28;19958;-91
2022/12/26 05:43:03;;;;;;;;;;;16.80;97.00;;;;;;5074373;28;19909;-91
2022/12/26 05:45:29;;;;;;;;;;;16.80;97.10;;;;;;5090180;28;19912;-91
2022/12/26 05:47:58;;;;;;;;;;;16.70;97.20;;;;;;5055584;28;20221;-91
2022/12/26 05:50:24;;;;;;;;;;;16.70;97.30;;;;;;5056653;28;19991;-90
2022/12/26 05:52:50;;;;;;;;;;;16.70;97.40;;;;;;5057485;28;19995;-91
2022/12/26 05:55:15;;;;;;;;;;;16.60;97.50;;;;;;5074535;28;20309;-91
2022/12/26 05:57:41;;;;;;;;;;;16.60;97.50;;;;;;5058114;28;20174;-91
2022/12/26 06:00:07;;;;;;;;;;;16.60;97.50;;;;;;5058304;28;19974;-91
2022/12/26 06:02:32;;;;;;;;;;;16.60;97.50;;;;;;5058933;28;19908;-91
2022/12/26 06:04:58;;;;;;;;;;;16.70;97.50;;;;;;5057506;28;19978;-91
2022/12/26 06:07:24;;;;;;;;;;;16.80;97.30;;;;;;5057575;28;20020;-91
2022/12/26 06:09:49;;;;;;;;;;;16.80;97.10;;;;;;5057379;28;19998;-91
2022/12/26 06:12:15;;;;;;;;;;;16.90;96.80;;;;;;5057075;28;20143;-91
2022/12/26 06:14:40;;;;;;;;;;;17.00;96.50;;;;;;5056290;28;19959;-91
2022/12/26 06:17:06;;;;;;;;;;;17.20;96.10;;;;;;5061730;28;19928;-90
2022/12/26 06:19:31;;;;;;;;;;;17.30;95.60;;;;;;5060792;28;19919;-91
2022/12/26 06:21:57;;;;;;;;;;;17.50;95.10;;;;;;5058187;28;19908;-91
2022/12/26 06:24:23;;;;;;;;;;;17.60;94.70;;;;;;5058752;28;19923;-90
2022/12/26 06:26:48;;;;;;;;;;;17.70;94.30;;;;;;5058659;28;20159;-90
2022/12/26 06:29:14;;;;;;;;;;;17.80;93.90;;;;;;5092116;28;19931;-91
2022/12/26 06:31:39;;;;;;;;;;;17.90;93.70;;;;;;5075912;28;20194;-91
2022/12/26 06:34:05;;;;;;;;;;;17.90;93.60;;;;;;5058449;28;20187;-90
2022/12/26 06:36:31;;;;;;;;;;;17.90;93.50;;;;;;5058074;28;19935;-91
2022/12/26 06:38:56;;;;;;;;;;;17.90;93.50;;;;;;5078067;28;19924;-90
2022/12/26 06:41:23;;;;;;;;;;;17.80;93.60;;;;;;5060048;28;20159;-91
2022/12/26 06:43:49;;;;;;;;;;;17.80;93.70;;;;;;5077184;28;19973;-90
2022/12/26 06:46:16;;;;;;;;;;;17.70;93.80;;;;;;5059938;28;19916;-90
2022/12/26 06:48:42;;;;;;;;;;;17.60;94.00;;;;;;5059681;28;19908;-90
2022/12/26 06:51:12;;;;;;;;;;;17.60;94.30;;;;;;5060211;28;19909;-90
2022/12/26 06:53:37;;;;;;;;;;;17.50;94.40;;;;;;5060079;28;19920;-90
2022/12/26 06:56:07;;;;;;;;;;;17.40;94.60;;;;;;5094203;28;19908;-91
2022/12/26 06:58:33;;;;;;;;;;;17.30;95.10;;;;;;5061318;28;20376;-91
2022/12/26 07:01:10;;;;;;;;;;;17.20;95.10;;;;;;5060582;28;20329;-91
2022/12/26 07:03:35;;;;;;;;;;;17.20;95.30;;;;;;5060740;28;19985;-91
2022/12/26 07:06:11;;;;;;;;;;;17.10;95.50;;;;;;5060507;28;20240;-91
2022/12/26 07:08:37;;;;;;;;;;;17.00;95.70;;;;;;5061016;28;19909;-91
2022/12/26 07:11:03;;;;;;;;;;;17.00;95.90;;;;;;5061209;28;19935;-91
2022/12/26 07:13:29;;;;;;;;;;;16.90;96.10;;;;;;5078646;28;19939;-91
2022/12/26 07:15:57;;;;;;;;;;;16.80;96.30;;;;;;5077784;28;20212;-91
2022/12/26 07:18:22;;;;;;;;;;;16.80;96.40;;;;;;5078561;28;19919;-91
2022/12/26 07:20:48;;;;;;;;;;;16.80;96.60;;;;;;5059824;28;20194;-91
2022/12/26 07:23:14;;;;;;;;;;;16.70;96.70;;;;;;5093874;28;19912;-91
2022/12/26 07:25:40;;;;;;;;;;;16.70;96.90;;;;;;5094722;28;19924;-91
2022/12/26 07:28:05;;;;;;;;;;;16.60;96.90;;;;;;5060126;28;19912;-91
2022/12/26 07:30:31;;;;;;;;;;;16.60;97.00;;;;;;5078149;28;19908;-91
2022/12/26 07:32:56;;;;;;;;;;;16.60;97.10;;;;;;5060678;28;19916;-91
2022/12/26 07:35:22;;;;;;;;;;;16.60;97.20;;;;;;5060355;28;20029;-91
2022/12/26 07:37:47;;;;;;;;;;;16.60;97.20;;;;;;5059291;28;20038;-91
2022/12/26 07:40:13;;;;;;;;;;;16.60;97.20;;;;;;5059845;28;19994;-91
2022/12/26 07:42:39;;;;;;;;;;;16.60;97.20;;;;;;5057582;28;20141;-91
2022/12/26 07:45:05;;;;;;;;;;;16.60;97.10;;;;;;5091795;28;20224;-91
2022/12/26 07:47:30;;;;;;;;;;;16.70;96.90;;;;;;5056584;28;20266;-91
2022/12/26 07:49:56;;;;;;;;;;;16.80;96.70;;;;;;5091507;28;19939;-91
2022/12/26 07:52:22;;;;;;;;;;;16.90;96.40;;;;;;5057455;28;19909;-91
2022/12/26 07:54:47;;;;;;;;;;;17.00;96.10;;;;;;5058189;28;19952;-91
2022/12/26 07:57:13;;;;;;;;;;;17.10;95.70;;;;;;5074184;28;19904;-91
2022/12/26 07:59:39;;;;;;;;;;;17.20;95.40;;;;;;5059301;28;19916;-91
2022/12/26 08:02:04;;;;;;;;;;;17.40;95.00;;;;;;5059249;28;19912;-91
2022/12/26 08:04:30;;;;;;;;;;;17.50;94.60;;;;;;5058930;28;19920;-91
2022/12/26 08:06:56;;;;;;;;;;;17.60;94.30;;;;;;5058942;28;20343;-91
2022/12/26 08:09:22;;;;;;;;;;;17.60;94.00;;;;;;5059859;28;19923;-91
2022/12/26 08:11:47;;;;;;;;;;;17.70;93.80;;;;;;5058856;28;20003;-90
2022/12/26 08:14:15;;;;;;;;;;;17.70;93.70;;;;;;5057701;28;19908;-91
2022/12/26 08:16:41;;;;;;;;;;;17.70;93.70;;;;;;5057220;28;20248;-91
2022/12/26 08:19:07;;;;;;;;;;;17.70;93.70;;;;;;5074391;28;20254;-91
2022/12/26 08:21:32;;;;;;;;;;;17.60;93.70;;;;;;5056819;28;19909;-91
2022/12/26 08:23:58;;;;;;;;;;;17.60;93.60;;;;;;5056442;28;19908;-91
2022/12/26 08:26:23;;;;;;;;;;;17.60;93.80;;;;;;5055077;28;19943;-91
2022/12/26 08:28:50;;;;;;;;;;;17.50;93.90;;;;;;5056681;28;19926;-92
2022/12/26 08:31:16;;;;;;;;;;;17.50;94.00;;;;;;5056028;28;19924;-91
2022/12/26 08:33:41;;;;;;;;;;;17.40;94.10;;;;;;5074228;28;20003;-90
2022/12/26 08:36:09;;;;;;;;;;;17.40;94.30;;;;;;5056295;28;19999;-90
2022/12/26 08:38:35;;;;;;;;;;;17.30;94.50;;;;;;5055199;28;19916;-91
2022/12/26 08:41:01;;;;;;;;;;;17.30;94.70;;;;;;5056048;28;19991;-91
2022/12/26 08:43:26;;;;;;;;;;;17.20;94.90;;;;;;5057292;28;20262;-91
2022/12/26 08:45:59;;;;;;;;;;;17.10;95.00;;;;;;5074515;28;19943;-91
2022/12/26 08:48:25;;;;;;;;;;;17.10;95.20;;;;;;5057482;28;19917;-91
2022/12/26 08:50:54;;;;;;;;;;;17.00;95.30;;;;;;5089910;28;19970;-91
2022/12/26 08:53:20;;;;;;;;;;;16.90;95.50;;;;;;5055359;28;19909;-91
2022/12/26 08:55:46;;;;;;;;;;;16.90;95.60;;;;;;5073155;28;19908;-91
2022/12/26 08:58:11;;;;;;;;;;;16.90;95.80;;;;;;5058151;28;19919;-91
2022/12/26 09:00:37;;;;;;;;;;;16.80;96.00;;;;;;5056736;28;20314;-91
2022/12/26 09:03:02;;;;;;;;;;;16.80;96.10;;;;;;5057142;28;19916;-91
2022/12/26 09:05:29;;;;;;;;;;;16.80;96.20;;;;;;5089551;28;19920;-91
2022/12/26 09:07:55;;;;;;;;;;;16.80;96.30;;;;;;5074104;28;19991;-91
2022/12/26 09:10:20;;;;;;;;;;;16.70;96.30;;;;;;5058021;28;20149;-91
2022/12/26 09:12:46;;;;;;;;;;;16.70;96.40;;;;;;5055694;28;19973;-91
2022/12/26 09:15:12;;;;;;;;;;;16.70;96.40;;;;;;5055682;28;19932;-91
2022/12/26 09:17:37;;;;;;;;;;;16.70;96.50;;;;;;5056365;28;19908;-91
2022/12/26 09:20:03;;;;;;;;;;;16.70;96.70;;;;;;5089020;28;20256;-91
2022/12/26 09:25:13;;;;;;;;;;;16.70;96.50;;;;;;5072552;28;19923;-91
2022/12/26 09:27:39;;;;;;;;;;;16.80;96.50;;;;;;5055354;28;19909;-91
2022/12/26 09:30:05;;;;;;;;;;;16.80;96.60;;;;;;5054081;28;19944;-92
2022/12/26 09:32:34;;;;;;;;;;;16.80;96.80;;;;;;5053899;28;19939;-91
2022/12/26 09:35:00;;;;;;;;;;;16.80;97.10;;;;;;5054009;28;20194;-91
2022/12/26 09:37:25;;;;;;;;;;;16.90;96.80;;;;;;5072802;28;20013;-91
2022/12/26 09:39:51;;;;;;;;;;;17.10;96.40;;;;;;5054946;28;19924;-90
2022/12/26 09:42:26;;;;;;;;;;;17.40;95.80;;;;;;5054374;28;19919;-90
2022/12/26 09:45:14;;;;;;;;;;;17.70;95.00;;;;;;5054656;28;20022;-90
2022/12/26 09:47:40;;;;;;;;;;;18.10;94.00;;;;;;5048864;28;19908;-90
2022/12/26 09:50:11;;;;;;;;;;;18.50;92.90;;;;;;5053892;28;19916;-90
2022/12/26 09:52:46;;;;;;;;;;;18.80;92.00;;;;;;5059512;28;19931;-89
2022/12/26 09:55:17;;;;;;;;;;;19.00;91.10;;;;;;5056657;28;19916;-90
2022/12/26 09:57:46;;;;;;;;;;;19.20;90.70;;;;;;5055927;28;20107;-90
2022/12/26 10:00:16;;;;;;;;;;;19.20;90.50;;;;;;5056190;28;20228;-90
2022/12/26 10:02:42;;;;;;;;;;;19.20;90.50;;;;;;5057662;28;19908;-90
2022/12/26 10:05:11;;;;;;;;;;;19.20;90.70;;;;;;5074140;28;20018;-90
2022/12/26 10:07:43;;;;;;;;;;;19.10;90.70;;;;;;5056232;28;19916;-91
2022/12/26 10:10:10;;;;;;;;;;;19.00;90.80;;;;;;5054383;28;20225;-91
2022/12/26 10:12:38;;;;;;;;;;;19.00;91.10;;;;;;5055398;28;19912;-90
2022/12/26 10:15:19;;;;;;;;;;;18.90;91.40;;;;;;5054546;28;19940;-91
2022/12/26 10:17:48;;;;;;;;;;;18.80;91.70;;;;;;5057064;28;19912;-91
2022/12/26 10:20:29;;;;;;;;;;;18.60;92.00;;;;;;5053581;28;20011;-91
2022/12/26 10:23:15;;;;;;;;;;;18.50;92.50;;;;;;5053475;28;19909;-90
2022/12/26 10:26:02;;;;;;;;;;;18.30;93.00;;;;;;5052931;28;19986;-91
2022/12/26 10:28:38;;;;;;;;;;;18.20;93.50;;;;;;5054845;28;20226;-90
2022/12/26 10:31:07;;;;;;;;;;;18.00;93.80;;;;;;5053197;28;19912;-90
2022/12/26 10:33:43;;;;;;;;;;;18.00;94.20;;;;;;5053320;28;20053;-90
2022/12/26 10:36:20;;;;;;;;;;;17.90;94.30;;;;;;5051731;28;19939;-90
2022/12/26 10:38:47;;;;;;;;;;;17.90;94.40;;;;;;5052362;28;19982;-90
2022/12/26 10:41:17;;;;;;;;;;;17.90;94.50;;;;;;5051954;28;19908;-90
2022/12/26 10:43:44;;;;;;;;;;;17.80;94.80;;;;;;5069330;28;19969;-90
2022/12/26 10:46:23;;;;;;;;;;;17.70;95.10;;;;;;5050671;28;19919;-90
2022/12/26 10:48:49;;;;;;;;;;;17.60;95.40;;;;;;5049564;28;20364;-90
2022/12/26 10:51:14;;;;;;;;;;;17.50;95.60;;;;;;5052373;28;20015;-90
2022/12/26 10:53:41;;;;;;;;;;;17.50;95.90;;;;;;5049485;28;20333;-90
2022/12/26 10:56:07;;;;;;;;;;;17.40;96.10;;;;;;5068542;28;20228;-90
2022/12/26 10:58:34;;;;;;;;;;;17.40;96.30;;;;;;5050367;28;19909;-90
2022/12/26 11:01:19;;;;;;;;;;;17.30;96.40;;;;;;5051228;28;19909;-90
2022/12/26 11:04:04;;;;;;;;;;;17.30;96.60;;;;;;5052991;28;20247;-90
2022/12/26 11:06:31;;;;;;;;;;;17.20;96.60;;;;;;5055400;28;20050;-91
2022/12/26 11:08:58;;;;;;;;;;;17.20;96.80;;;;;;5054891;28;19912;-90
2022/12/26 11:11:44;;;;;;;;;;;17.20;96.90;;;;;;5055485;28;20013;-92
2022/12/26 11:14:28;;;;;;;;;;;17.20;96.90;;;;;;5054897;28;19981;-90
2022/12/26 11:16:54;;;;;;;;;;;17.10;97.00;;;;;;5053899;28;19919;-90
2022/12/26 11:19:28;;;;;;;;;;;17.10;97.30;;;;;;5052815;28;20322;-90
2022/12/26 11:21:53;;;;;;;;;;;17.00;97.40;;;;;;5053574;28;20079;-90
2022/12/26 11:24:19;;;;;;;;;;;17.00;97.50;;;;;;5055106;28;20007;-90
2022/12/26 11:26:45;;;;;;;;;;;16.90;97.60;;;;;;5056503;28;20007;-90
2022/12/26 11:29:21;;;;;;;;;;;16.90;97.70;;;;;;5056837;28;19978;-90
2022/12/26 11:31:57;;;;;;;;;;;16.90;97.70;;;;;;5055409;28;20139;-90
2022/12/26 11:34:33;;;;;;;;;;;16.90;97.80;;;;;;5058170;28;19997;-90
2022/12/26 11:36:59;;;;;;;;;;;16.90;97.80;;;;;;5057205;28;19915;-90
2022/12/26 11:39:27;;;;;;;;;;;16.90;98.30;;;;;;5058370;28;19908;-90
2022/12/26 11:41:53;;;;;;;;;;;17.00;98.10;;;;;;5056171;28;19908;-90
2022/12/26 11:44:29;;;;;;;;;;;17.10;98.00;;;;;;5075274;28;20163;-90
2022/12/26 11:47:07;;;;;;;;;;;17.10;97.80;;;;;;5059138;28;20003;-91
2022/12/26 11:49:34;;;;;;;;;;;17.20;97.50;;;;;;5056133;28;20016;-90
2022/12/26 11:52:21;;;;;;;;;;;17.30;97.30;;;;;;5057225;28;20075;-91
2022/12/26 11:54:50;;;;;;;;;;;17.30;97.30;;;;;;5064834;28;19921;-90
2022/12/26 11:57:24;;;;;;;;;;;17.30;97.30;;;;;;5055643;28;19909;-92
2022/12/26 11:59:52;;;;;;;;;;;17.20;97.30;;;;;;5055490;28;19912;-90
2022/12/26 12:02:32;;;;;;;;;;;17.20;97.40;;;;;;5072736;28;19908;-90
2022/12/26 12:05:09;;;;;;;;;;;17.20;97.50;;;;;;5055634;28;20061;-90
2022/12/26 12:07:39;;;;;;;;;;;17.10;97.60;;;;;;5061293;28;19936;-90
2022/12/26 12:11:06;;;;;;;;;;;17.10;97.70;;;;;;5054755;28;19944;-90
2022/12/26 12:13:31;;;;;;;;;;;17.10;97.80;;;;;;5068238;28;19915;-90
2022/12/26 12:16:15;;;;;;;;;;;17.00;97.90;;;;;;5074370;28;20044;-91
2022/12/26 12:19:08;;;;;;;;;;;17.00;98.10;;;;;;5057506;28;20328;-93
2022/12/26 12:21:41;;;;;;;;;;;17.00;98.10;;;;;;5053205;28;19908;-91
2022/12/26 12:24:10;;;;;;;;;;;17.00;98.20;;;;;;5055310;28;19916;-90
2022/12/26 12:26:46;;;;;;;;;;;17.00;98.20;;;;;;5064309;28;19915;-91
2022/12/26 12:29:31;;;;;;;;;;;16.90;98.30;;;;;;5055864;28;20137;-90
2022/12/26 12:32:13;;;;;;;;;;;16.90;98.30;;;;;;5074411;28;19909;-90
2022/12/26 12:34:38;;;;;;;;;;;16.90;98.40;;;;;;5068257;28;19978;-90
2022/12/26 12:37:16;;;;;;;;;;;16.90;98.40;;;;;;5055493;28;19916;-90
2022/12/26 12:39:52;;;;;;;;;;;16.90;98.40;;;;;;5055310;28;19919;-90
2022/12/26 12:42:37;;;;;;;;;;;16.90;98.40;;;;;;5056897;28;20168;-90
2022/12/26 12:45:21;;;;;;;;;;;16.90;98.40;;;;;;5056009;28;20039;-90
2022/12/26 12:47:47;;;;;;;;;;;16.90;98.40;;;;;;5055521;28;19909;-90
2022/12/26 12:50:20;;;;;;;;;;;16.90;98.30;;;;;;5054377;28;19919;-90
2022/12/26 12:52:48;;;;;;;;;;;16.90;98.40;;;;;;5056935;28;20003;-90
2022/12/26 12:55:14;;;;;;;;;;;16.90;98.40;;;;;;5073051;28;20073;-90
2022/12/26 12:57:39;;;;;;;;;;;16.80;98.50;;;;;;5056414;28;20006;-90
2022/12/26 13:00:26;;;;;;;;;;;16.80;98.50;;;;;;5054862;28;19919;-89
2022/12/26 13:02:52;;;;;;;;;;;16.90;98.60;;;;;;5053128;28;20197;-90
2022/12/26 13:05:50;;;;;;;;;;;16.90;98.60;;;;;;5071854;28;20293;-90
2022/12/26 13:08:29;;;;;;;;;;;16.90;98.50;;;;;;5032021;28;19908;-90
2022/12/26 13:10:58;;;;;;;;;;;16.90;98.40;;;;;;5054530;28;19909;-89
2022/12/26 13:13:26;;;;;;;;;;;16.90;98.40;;;;;;5053851;28;19943;-89
2022/12/26 13:15:55;;;;;;;;;;;16.90;98.40;;;;;;5053225;28;19908;-91
2022/12/26 13:18:26;;;;;;;;;;;17.00;98.30;;;;;;5054850;28;19920;-91
2022/12/26 13:20:57;;;;;;;;;;;17.00;98.30;;;;;;5072732;28;19916;-91
2022/12/26 13:26:20;;;;;;;;;;;17.00;98.10;;;;;;5071886;28;20018;-91
2022/12/26 13:29:04;;;;;;;;;;;17.00;98.00;;;;;;5054104;28;19908;-91
2022/12/26 13:31:31;;;;;;;;;;;17.00;98.00;;;;;;5054495;28;20007;-91
2022/12/26 13:33:57;;;;;;;;;;;17.00;98.00;;;;;;5054038;28;20195;-92
2022/12/26 13:36:33;;;;;;;;;;;17.00;98.00;;;;;;5091040;28;19909;-92
2022/12/26 13:39:00;;;;;;;;;;;17.00;98.00;;;;;;5055327;28;19908;-91
2022/12/26 13:44:20;;;;;;;;;;;16.90;98.10;;;;;;5073087;28;19919;-91
2022/12/26 13:46:45;;;;;;;;;;;16.90;98.20;;;;;;5057239;28;19915;-91
2022/12/26 13:49:26;;;;;;;;;;;16.90;98.30;;;;;;5055591;28;20003;-91
2022/12/26 13:51:53;;;;;;;;;;;16.90;98.30;;;;;;5054909;28;20285;-91
2022/12/26 13:54:20;;;;;;;;;;;16.80;98.40;;;;;;5053753;28;20194;-91
2022/12/26 13:56:59;;;;;;;;;;;16.80;98.50;;;;;;5072641;28;19915;-91
2022/12/26 13:59:29;;;;;;;;;;;16.80;98.50;;;;;;5054259;28;20159;-91
2022/12/26 14:02:17;;;;;;;;;;;16.70;98.60;;;;;;5054359;28;20343;-91
2022/12/26 14:04:43;;;;;;;;;;;16.70;98.60;;;;;;5088267;28;20498;-91
2022/12/26 14:07:28;;;;;;;;;;;16.70;98.70;;;;;;5056808;28;19951;-91
2022/12/26 14:10:03;;;;;;;;;;;16.70;98.80;;;;;;5072520;28;20333;-91
2022/12/26 14:12:28;;;;;;;;;;;16.60;98.80;;;;;;5054385;28;20092;-91
2022/12/26 14:15:00;;;;;;;;;;;16.60;98.80;;;;;;5054979;28;19917;-90
2022/12/26 14:17:28;;;;;;;;;;;16.60;98.80;;;;;;5054069;28;20369;-91
2022/12/26 14:19:57;;;;;;;;;;;16.60;98.90;;;;;;5052920;28;20141;-91
2022/12/26 14:22:40;;;;;;;;;;;16.60;98.90;;;;;;5054104;28;19920;-90
2022/12/26 14:25:17;;;;;;;;;;;16.60;99.00;;;;;;5070049;28;19913;-91
2022/12/26 14:27:47;;;;;;;;;;;16.50;99.00;;;;;;5051800;28;19920;-91
2022/12/26 14:30:21;;;;;;;;;;;16.50;99.00;;;;;;5051935;28;19912;-91
2022/12/26 14:33:05;;;;;;;;;;;16.50;99.10;;;;;;5051914;28;20269;-92
2022/12/26 14:35:31;;;;;;;;;;;16.50;99.10;;;;;;5051878;28;20261;-91
2022/12/26 14:37:57;;;;;;;;;;;16.50;99.10;;;;;;5053466;28;19916;-91
2022/12/26 14:40:26;;;;;;;;;;;16.50;99.00;;;;;;5053220;28;19973;-91
2022/12/26 14:43:10;;;;;;;;;;;16.60;98.90;;;;;;5052839;28;19909;-91
2022/12/26 14:45:43;;;;;;;;;;;16.60;98.80;;;;;;5054389;28;19970;-91
2022/12/26 14:48:14;;;;;;;;;;;16.60;98.60;;;;;;5053824;28;19914;-91
2022/12/26 14:50:48;;;;;;;;;;;16.70;98.50;;;;;;5053625;28;20169;-91
2022/12/26 14:53:23;;;;;;;;;;;16.80;98.30;;;;;;5052961;28;20082;-91
2022/12/26 14:55:52;;;;;;;;;;;16.90;98.10;;;;;;5052591;28;19912;-91
2022/12/26 14:58:30;;;;;;;;;;;16.90;97.90;;;;;;5056195;28;20002;-91
2022/12/26 15:01:08;;;;;;;;;;;17.00;97.60;;;;;;5056741;28;20037;-91
2022/12/26 15:03:36;;;;;;;;;;;17.00;97.50;;;;;;5056311;28;19919;-91
2022/12/26 15:06:14;;;;;;;;;;;17.00;97.30;;;;;;5054762;28;20274;-91
2022/12/26 15:08:46;;;;;;;;;;;17.10;97.20;;;;;;5055709;28;19908;-91
2022/12/26 15:11:18;;;;;;;;;;;17.00;97.10;;;;;;5053119;28;20163;-91
2022/12/26 15:13:52;;;;;;;;;;;17.10;97.00;;;;;;5053738;28;20057;-91
2022/12/26 15:16:28;;;;;;;;;;;17.00;97.10;;;;;;5052704;28;20297;-91
2022/12/26 15:19:06;;;;;;;;;;;17.00;97.10;;;;;;5053394;28;20072;-91
2022/12/26 15:21:34;;;;;;;;;;;16.90;97.20;;;;;;5053974;28;19923;-91
2022/12/26 15:24:09;;;;;;;;;;;16.90;97.20;;;;;;5053198;28;20210;-91
2022/12/26 15:26:44;;;;;;;;;;;16.80;97.30;;;;;;5054080;28;19909;-91
2022/12/26 15:29:10;;;;;;;;;;;16.80;97.40;;;;;;5054989;28;19916;-91
2022/12/26 15:31:47;;;;;;;;;;;16.80;97.50;;;;;;5055333;28;20435;-91
2022/12/26 15:34:16;;;;;;;;;;;16.70;97.60;;;;;;5055773;28;19956;-91
2022/12/26 15:36:45;;;;;;;;;;;16.70;97.70;;;;;;5054328;28;20119;-91
2022/12/26 15:39:19;;;;;;;;;;;16.60;97.80;;;;;;5051951;28;19926;-91
2022/12/26 15:42:05;;;;;;;;;;;16.60;97.90;;;;;;5055113;28;19916;-91
2022/12/26 15:44:38;;;;;;;;;;;16.60;98.00;;;;;;5031211;28;19912;-91
2022/12/26 15:47:10;;;;;;;;;;;16.50;98.10;;;;;;5053419;28;20095;-91
2022/12/26 15:49:59;;;;;;;;;;;16.50;98.10;;;;;;5071653;28;20135;-91
2022/12/26 15:52:24;;;;;;;;;;;16.40;98.20;;;;;;5046438;28;19999;-90
2022/12/26 15:55:17;;;;;;;;;;;16.40;98.30;;;;;;5054115;28;20014;-91
2022/12/26 15:57:57;;;;;;;;;;;16.40;98.40;;;;;;5070769;28;20149;-91
2022/12/26 16:00:25;;;;;;;;;;;16.30;98.40;;;;;;5052964;28;19998;-91
2022/12/26 16:03:09;;;;;;;;;;;16.30;98.50;;;;;;5053572;28;19947;-91
2022/12/26 16:05:47;;;;;;;;;;;16.30;98.60;;;;;;5056142;28;20351;-91
2022/12/26 16:08:23;;;;;;;;;;;16.30;98.70;;;;;;5054380;28;19938;-91
2022/12/26 16:11:06;;;;;;;;;;;16.20;98.70;;;;;;5054811;28;19909;-91
2022/12/26 16:13:31;;;;;;;;;;;16.20;98.70;;;;;;5054500;28;20278;-91
2022/12/26 16:15:58;;;;;;;;;;;16.20;98.80;;;;;;5053167;28;19947;-91
2022/12/26 16:18:31;;;;;;;;;;;16.30;98.80;;;;;;5055405;28;19943;-91
2022/12/26 16:23:43;;;;;;;;;;;16.60;98.10;;;;;;5073509;28;19915;-91
2022/12/26 16:26:15;;;;;;;;;;;16.80;97.40;;;;;;5054406;28;20010;-91
2022/12/26 16:28:42;;;;;;;;;;;17.00;97.00;;;;;;5072764;28;20002;-91
2022/12/26 16:31:08;;;;;;;;;;;17.20;96.10;;;;;;5055579;28;20199;-91
2022/12/26 16:33:39;;;;;;;;;;;17.40;95.40;;;;;;5045546;28;20321;-91
2022/12/26 16:36:06;;;;;;;;;;;17.70;94.80;;;;;;5053582;28;19920;-91
2022/12/26 16:38:32;;;;;;;;;;;17.80;94.20;;;;;;5033777;28;20259;-91
2022/12/26 16:40:59;;;;;;;;;;;17.90;93.90;;;;;;5034131;28;19920;-91
2022/12/26 16:43:29;;;;;;;;;;;17.90;93.50;;;;;;5036252;28;19909;-91
2022/12/26 16:46:01;;;;;;;;;;;17.90;93.40;;;;;;5034628;28;19977;-91
2022/12/26 16:48:28;;;;;;;;;;;17.90;93.40;;;;;;5034889;28;19909;-91
2022/12/26 16:50:56;;;;;;;;;;;17.90;93.50;;;;;;5034995;28;20215;-91
2022/12/26 16:53:23;;;;;;;;;;;17.80;93.60;;;;;;5034691;28;19940;-91